createdAt,value
2024-02-15T00:02:08.316Z,100846.06
2024-02-15T00:04:34.912Z,100843.63
2024-02-15T00:07:01.718Z,100843.72
2024-02-15T00:09:28.430Z,100842.84
2024-02-15T00:11:55.224Z,100847.84
2024-02-15T00:14:22.018Z,100846.34
2024-02-15T00:16:48.724Z,100843.75
2024-02-15T00:19:15.457Z,100844.63
2024-02-15T00:21:44.670Z,100841.88
2024-02-15T00:24:11.436Z,100840.97
2024-02-15T00:26:38.751Z,100845.38
2024-02-15T00:29:05.359Z,100842.03
2024-02-15T00:31:32.051Z,100834.19
2024-02-15T00:33:58.888Z,100842.91
2024-02-15T00:36:26.036Z,100840.31
2024-02-15T00:38:52.662Z,100846.38
2024-02-15T00:41:19.299Z,100844.59
2024-02-15T00:43:46.232Z,100835.00
2024-02-15T00:46:13.002Z,100835.00
2024-02-15T00:48:40.119Z,100836.75
2024-02-15T00:51:06.961Z,100835.84
2024-02-15T00:53:33.934Z,100850.66
2024-02-15T00:56:00.637Z,100845.47
2024-02-15T00:58:30.185Z,100846.28
2024-02-15T01:00:56.886Z,100842.78
2024-02-15T01:03:23.617Z,100849.88
2024-02-15T01:05:50.325Z,100847.28
2024-02-15T01:08:16.958Z,100847.22
2024-02-15T01:10:43.638Z,100844.56
2024-02-15T01:13:10.313Z,100850.69
2024-02-15T01:15:36.961Z,100839.38
2024-02-15T01:18:03.888Z,100839.41
2024-02-15T01:20:30.716Z,100847.25
2024-02-15T01:22:57.417Z,100848.94
2024-02-15T01:25:24.159Z,100852.47
2024-02-15T01:27:51.012Z,100851.66
2024-02-15T01:30:17.862Z,100855.09
2024-02-15T01:32:44.632Z,100853.28
2024-02-15T01:35:11.454Z,100848.09
2024-02-15T01:37:38.168Z,100844.66
2024-02-15T01:40:08.533Z,100846.41
2024-02-15T01:42:35.184Z,100836.81
2024-02-15T01:45:01.952Z,100835.97
2024-02-15T01:47:29.117Z,100836.84
2024-02-15T01:49:55.955Z,100834.19
2024-02-15T01:52:22.774Z,100835.97
2024-02-15T01:54:51.802Z,100839.34
2024-02-15T01:57:19.341Z,100837.44
2024-02-15T01:59:46.022Z,100832.28
2024-02-15T02:02:15.914Z,100840.16
2024-02-15T02:04:43.097Z,100831.41
2024-02-15T02:07:09.811Z,100837.56
2024-02-15T02:09:36.453Z,100825.31
2024-02-15T02:12:03.131Z,100827.88
2024-02-15T02:14:29.911Z,100817.56
2024-02-15T02:16:56.521Z,100814.91
2024-02-15T02:19:23.178Z,100817.53
2024-02-15T02:21:49.771Z,100818.53
2024-02-15T02:24:23.387Z,100822.91
2024-02-15T02:26:53.042Z,100812.38
2024-02-15T02:29:19.691Z,100814.94
2024-02-15T02:31:46.291Z,100808.03
2024-02-15T02:34:13.090Z,100818.53
2024-02-15T02:36:39.771Z,100806.28
2024-02-15T02:39:06.434Z,100810.63
2024-02-15T02:41:33.329Z,100798.38
2024-02-15T02:44:00.167Z,100807.94
2024-02-15T02:46:26.887Z,100805.44
2024-02-15T02:48:53.802Z,100805.41
2024-02-15T02:51:20.961Z,100808.03
2024-02-15T02:53:47.666Z,100810.63
2024-02-15T02:56:14.339Z,100820.97
2024-02-15T02:58:40.965Z,100825.38
2024-02-15T03:01:07.599Z,100825.41
2024-02-15T03:03:34.262Z,100824.47
2024-02-15T03:06:00.984Z,100826.22
2024-02-15T03:08:27.593Z,100820.16
2024-02-15T03:10:54.329Z,100813.16
2024-02-15T03:13:21.454Z,100817.50
2024-02-15T03:15:48.100Z,100830.56
2024-02-15T03:18:17.739Z,100823.66
2024-02-15T03:20:44.611Z,100828.06
2024-02-15T03:23:11.381Z,100820.19
2024-02-15T03:25:38.279Z,100820.16
2024-02-15T03:28:05.119Z,100821.03
2024-02-15T03:30:33.089Z,100825.34
2024-02-15T03:33:05.102Z,100819.34
2024-02-15T03:35:31.987Z,100822.84
2024-02-15T03:37:58.839Z,100811.50
2024-02-15T03:40:25.732Z,100819.34
2024-02-15T03:42:52.361Z,100821.09
2024-02-15T03:45:19.486Z,100820.25
2024-02-15T03:47:46.178Z,100823.66
2024-02-15T03:50:12.915Z,100830.59
2024-02-15T03:52:39.668Z,100825.31
2024-02-15T03:55:07.021Z,100822.69
2024-02-15T03:57:33.751Z,100821.03
2024-02-15T04:00:00.977Z,100822.88
2024-02-15T04:02:27.961Z,100822.91
2024-02-15T04:04:55.003Z,100822.91
2024-02-15T04:07:25.030Z,100821.19
2024-02-15T04:09:51.751Z,100826.41
2024-02-15T04:12:18.419Z,100827.19
2024-02-15T04:14:45.829Z,100818.44
2024-02-15T04:17:12.886Z,100815.72
2024-02-15T04:19:39.679Z,100820.00
2024-02-15T04:22:06.323Z,100815.69
2024-02-15T04:24:32.881Z,100813.97
2024-02-15T04:26:59.558Z,100820.03
2024-02-15T04:29:26.244Z,100815.03
2024-02-15T04:31:52.953Z,100815.00
2024-02-15T04:34:20.115Z,100815.81
2024-02-15T04:36:49.299Z,100817.44
2024-02-15T04:39:15.970Z,100814.81
2024-02-15T04:41:42.585Z,100818.28
2024-02-15T04:44:09.320Z,100820.97
2024-02-15T04:46:35.916Z,100813.13
2024-02-15T04:49:02.580Z,100815.69
2024-02-15T04:51:29.210Z,100809.72
2024-02-15T04:53:56.003Z,100816.72
2024-02-15T04:56:22.668Z,100812.44
2024-02-15T04:58:49.371Z,100826.31
2024-02-15T05:01:17.041Z,100821.09
2024-02-15T05:03:44.629Z,100820.16
2024-02-15T05:06:11.658Z,100822.78
2024-02-15T05:08:39.346Z,100837.59
2024-02-15T05:11:05.979Z,100838.44
2024-02-15T05:13:32.698Z,100839.28
2024-02-15T05:15:59.379Z,100841.78
2024-02-15T05:18:26.131Z,100846.00
2024-02-15T05:20:52.886Z,100839.13
2024-02-15T05:23:19.576Z,100841.03
2024-02-15T05:25:46.557Z,100841.97
2024-02-15T05:28:13.443Z,100850.72
2024-02-15T05:30:40.136Z,100844.56
2024-02-15T05:33:06.928Z,100847.19
2024-02-15T05:35:33.832Z,100839.38
2024-02-15T05:38:00.599Z,100844.59
2024-02-15T05:40:27.163Z,100846.28
2024-02-15T05:43:00.936Z,100846.25
2024-02-15T05:45:27.826Z,100851.69
2024-02-15T05:47:55.030Z,100850.78
2024-02-15T05:50:22.540Z,100845.47
2024-02-15T05:52:49.438Z,100849.84
2024-02-15T05:55:16.223Z,100850.75
2024-02-15T05:57:43.040Z,100853.38
2024-02-15T06:00:17.402Z,100862.81
2024-02-15T06:02:48.878Z,100854.88
2024-02-15T06:05:15.618Z,100869.09
2024-02-15T06:07:42.564Z,100866.44
2024-02-15T06:10:09.515Z,100865.47
2024-02-15T06:12:36.190Z,100874.16
2024-02-15T06:15:05.187Z,100865.56
2024-02-15T06:17:32.043Z,100876.91
2024-02-15T06:19:58.728Z,100877.66
2024-02-15T06:22:25.404Z,100875.03
2024-02-15T06:24:52.038Z,100885.41
2024-02-15T06:27:18.853Z,100877.59
2024-02-15T06:29:45.725Z,100883.72
2024-02-15T06:32:12.477Z,100881.06
2024-02-15T06:34:39.241Z,100888.09
2024-02-15T06:37:05.872Z,100897.75
2024-02-15T06:39:32.838Z,100889.94
2024-02-15T06:42:02.136Z,100888.97
2024-02-15T06:44:29.112Z,100898.72
2024-02-15T06:46:55.893Z,100902.25
2024-02-15T06:49:22.681Z,100907.28
2024-02-15T06:51:50.440Z,100906.16
2024-02-15T06:54:17.496Z,100907.09
2024-02-15T06:56:44.260Z,100902.03
2024-02-15T06:59:10.906Z,100907.19
2024-02-15T07:01:37.517Z,100909.94
2024-02-15T07:04:04.437Z,100908.22
2024-02-15T07:06:31.393Z,100901.31
2024-02-15T07:08:58.503Z,100905.75
2024-02-15T07:11:25.184Z,100905.72
2024-02-15T07:13:51.803Z,100907.44
2024-02-15T07:16:18.601Z,100909.16
2024-02-15T07:18:45.317Z,100908.19
2024-02-15T07:21:12.093Z,100907.91
2024-02-15T07:23:39.010Z,100907.91
2024-02-15T07:26:05.721Z,100915.22
2024-02-15T07:28:32.397Z,100912.59
2024-02-15T07:30:59.088Z,100903.78
2024-02-15T07:33:25.953Z,100910.03
2024-02-15T07:35:55.487Z,100912.72
2024-02-15T07:38:22.117Z,100917.97
2024-02-15T07:40:48.733Z,100917.91
2024-02-15T07:43:15.660Z,100917.06
2024-02-15T07:45:43.382Z,100931.91
2024-02-15T07:48:10.255Z,100929.28
2024-02-15T07:50:36.948Z,100917.69
2024-02-15T07:53:03.769Z,100924.03
2024-02-15T07:55:30.426Z,100933.38
2024-02-15T07:57:57.152Z,100920.09
2024-02-15T08:00:26.791Z,100924.69
2024-02-15T08:02:53.474Z,100924.81
2024-02-15T08:05:20.258Z,100923.97
2024-02-15T08:07:46.999Z,100923.19
2024-02-15T08:10:14.162Z,100912.66
2024-02-15T08:12:47.382Z,100922.31
2024-02-15T08:15:14.344Z,100918.81
2024-02-15T08:17:44.759Z,100916.22
2024-02-15T08:20:12.144Z,100916.22
2024-02-15T08:22:39.334Z,100918.81
2024-02-15T08:25:10.898Z,100914.47
2024-02-15T08:27:48.953Z,100921.44
2024-02-15T08:30:16.885Z,100917.06
2024-02-15T08:32:44.864Z,100922.28
2024-02-15T08:35:13.299Z,100928.38
2024-02-15T08:37:43.141Z,100935.38
2024-02-15T08:40:10.704Z,100915.34
2024-02-15T08:42:46.400Z,100923.19
2024-02-15T08:45:13.293Z,100928.41
2024-02-15T08:47:41.562Z,100927.56
2024-02-15T08:50:09.880Z,100921.44
2024-02-15T08:52:37.275Z,100924.06
2024-02-15T08:55:03.967Z,100924.97
2024-02-15T08:57:30.612Z,100914.47
2024-02-15T08:59:57.192Z,100922.31
2024-02-15T09:02:23.923Z,100924.88
2024-02-15T09:04:50.631Z,100922.28
2024-02-15T09:07:17.451Z,100917.94
2024-02-15T09:09:44.400Z,100918.78
2024-02-15T09:12:11.035Z,100923.16
2024-02-15T09:14:37.712Z,100915.22
2024-02-15T09:17:06.125Z,100914.44
2024-02-15T09:19:33.664Z,100917.94
2024-02-15T09:22:00.292Z,100922.28
2024-02-15T09:24:26.976Z,100922.31
2024-02-15T09:26:53.689Z,100931.84
2024-02-15T09:29:20.415Z,100938.78
2024-02-15T09:31:50.093Z,100933.63
2024-02-15T09:34:19.363Z,100927.50
2024-02-15T09:36:46.113Z,100933.66
2024-02-15T09:39:12.837Z,100935.38
2024-02-15T09:41:39.551Z,100928.22
2024-02-15T09:44:06.170Z,100939.72
2024-02-15T09:46:37.082Z,100937.03
2024-02-15T09:49:04.720Z,100937.03
2024-02-15T09:51:34.528Z,100942.34
2024-02-15T09:54:02.113Z,100944.03
2024-02-15T09:56:29.289Z,100932.59
2024-02-15T09:58:56.066Z,100931.88
2024-02-15T10:01:24.291Z,100934.53
2024-02-15T10:03:51.087Z,100940.63
2024-02-15T10:06:18.293Z,100933.41
2024-02-15T10:08:45.593Z,100939.63
2024-02-15T10:11:12.577Z,100937.00
2024-02-15T10:13:39.212Z,100937.97
2024-02-15T10:16:35.460Z,100937.09
2024-02-15T10:19:10.497Z,100932.69
2024-02-15T10:21:37.253Z,100938.78
2024-02-15T10:24:05.891Z,100929.16
2024-02-15T10:26:33.093Z,100924.75
2024-02-15T10:29:11.156Z,100922.94
2024-02-15T10:31:39.507Z,100921.38
2024-02-15T10:34:07.896Z,100929.97
2024-02-15T10:36:37.369Z,100925.53
2024-02-15T10:39:14.808Z,100921.28
2024-02-15T10:41:42.118Z,100918.41
2024-02-15T10:44:09.697Z,100916.56
2024-02-15T10:46:36.375Z,100914.78
2024-02-15T10:49:03.153Z,100912.75
2024-02-15T10:51:30.745Z,100918.56
2024-02-15T10:54:04.026Z,100914.81
2024-02-15T10:56:38.294Z,100904.38
2024-02-15T10:59:25.294Z,100909.66
2024-02-15T11:01:55.653Z,100910.59
2024-02-15T11:04:23.496Z,100916.69
2024-02-15T11:06:51.178Z,100912.94
2024-02-15T11:09:18.721Z,100910.13
2024-02-15T11:11:46.213Z,100910.34
2024-02-15T11:14:27.479Z,100910.91
2024-02-15T11:16:54.254Z,100914.28
2024-02-15T11:19:35.920Z,100910.69
2024-02-15T11:22:09.674Z,100908.69
2024-02-15T11:24:36.466Z,100915.94
2024-02-15T11:27:04.792Z,100911.19
2024-02-15T11:29:59.708Z,100910.03
2024-02-15T11:32:39.263Z,100907.13
2024-02-15T11:35:10.797Z,100905.91
2024-02-15T11:37:49.571Z,100908.22
2024-02-15T11:40:21.192Z,100906.13
2024-02-15T11:42:47.816Z,100897.28
2024-02-15T11:45:16.613Z,100897.06
2024-02-15T11:47:43.410Z,100903.59
2024-02-15T11:50:11.403Z,100897.94
2024-02-15T11:52:38.026Z,100904.63
2024-02-15T11:55:08.336Z,100893.63
2024-02-15T11:57:34.942Z,100892.94
2024-02-15T12:00:01.757Z,100889.38
2024-02-15T12:02:28.569Z,100888.75
2024-02-15T12:04:55.322Z,100884.72
2024-02-15T12:07:22.861Z,100884.88
2024-02-15T12:09:49.561Z,100887.50
2024-02-15T12:12:16.326Z,100887.81
2024-02-15T12:14:43.078Z,100886.72
2024-02-15T12:17:11.496Z,100885.38
2024-02-15T12:19:38.139Z,100884.41
2024-02-15T12:22:06.290Z,100885.97
2024-02-15T12:24:33.073Z,100888.28
2024-02-15T12:27:03.615Z,100884.31
2024-02-15T12:29:30.554Z,100877.28
2024-02-15T12:31:57.469Z,100874.56
2024-02-15T12:34:24.107Z,100869.88
2024-02-15T12:36:50.788Z,100864.16
2024-02-15T12:39:25.656Z,100868.22
2024-02-15T12:41:52.441Z,100866.00
2024-02-15T12:44:19.325Z,100853.00
2024-02-15T12:46:45.969Z,100851.38
2024-02-15T12:49:30.383Z,100852.41
2024-02-15T12:52:36.052Z,100847.59
2024-02-15T12:55:12.305Z,100848.28
2024-02-15T12:57:39.692Z,100841.41
2024-02-15T13:00:07.507Z,100852.66
2024-02-15T13:02:34.173Z,100849.97
2024-02-15T13:05:01.056Z,100845.44
2024-02-15T13:07:27.891Z,100845.19
2024-02-15T13:09:54.551Z,100843.28
2024-02-15T13:12:21.250Z,100838.91
2024-02-15T13:14:47.942Z,100836.81
2024-02-15T13:17:14.580Z,100832.13
2024-02-15T13:19:46.596Z,100827.75
2024-02-15T13:22:13.265Z,100829.00
2024-02-15T13:24:39.893Z,100834.22
2024-02-15T13:27:06.601Z,100836.00
2024-02-15T13:29:33.187Z,100834.09
2024-02-15T13:31:59.840Z,100827.75
2024-02-15T13:34:26.545Z,100830.66
2024-02-15T13:36:53.245Z,100833.28
2024-02-15T13:39:19.981Z,100832.97
2024-02-15T13:41:46.684Z,100833.28
2024-02-15T13:44:13.363Z,100829.63
2024-02-15T13:46:40.020Z,100827.75
2024-02-15T13:49:08.707Z,100834.03
2024-02-15T13:51:38.605Z,100825.19
2024-02-15T13:54:05.247Z,100828.44
2024-02-15T13:56:31.962Z,100823.00
2024-02-15T13:59:02.628Z,100828.38
2024-02-15T14:01:30.667Z,100824.06
2024-02-15T14:03:57.373Z,100823.72
2024-02-15T14:06:24.136Z,100821.72
2024-02-15T14:08:50.816Z,100823.34
2024-02-15T14:11:17.714Z,100825.66
2024-02-15T14:13:44.559Z,100822.41
2024-02-15T14:16:11.243Z,100820.53
2024-02-15T14:18:37.973Z,100822.56
2024-02-15T14:21:04.823Z,100808.72
2024-02-15T14:23:31.476Z,100813.56
2024-02-15T14:25:58.092Z,100819.00
2024-02-15T14:28:24.738Z,100812.88
2024-02-15T14:30:51.492Z,100815.63
2024-02-15T14:33:22.170Z,100822.00
2024-02-15T14:35:51.158Z,100816.78
2024-02-15T14:38:17.812Z,100818.66
2024-02-15T14:40:46.334Z,100811.69
2024-02-15T14:45:44.966Z,100816.13
2024-02-15T14:48:12.075Z,100811.25
2024-02-15T14:50:38.936Z,100815.31
2024-02-15T14:53:05.810Z,100818.91
2024-02-15T14:55:32.623Z,100821.88
2024-02-15T14:58:04.183Z,100822.03
2024-02-15T15:00:37.740Z,100821.66
2024-02-15T15:03:05.364Z,100821.63
2024-02-15T15:05:32.368Z,100825.56
2024-02-15T15:07:59.122Z,100823.38
2024-02-15T15:10:25.788Z,100818.00
2024-02-15T15:12:52.545Z,100813.63
2024-02-15T15:15:19.303Z,100814.53
2024-02-15T15:17:46.681Z,100814.59
2024-02-15T15:20:13.867Z,100814.50
2024-02-15T15:22:40.533Z,100804.41
2024-02-15T15:25:07.318Z,100814.22
2024-02-15T15:27:33.945Z,100806.38
2024-02-15T15:30:00.760Z,100807.13
2024-02-15T15:32:27.599Z,100808.47
2024-02-15T15:34:54.392Z,100807.09
2024-02-15T15:37:22.200Z,100807.88
2024-02-15T15:39:48.941Z,100807.75
2024-02-15T15:42:16.602Z,100818.44
2024-02-15T15:44:43.296Z,100809.47
2024-02-15T15:47:09.904Z,100815.69
2024-02-15T15:49:36.622Z,100821.19
2024-02-15T15:52:03.451Z,100821.38
2024-02-15T15:54:30.214Z,100815.31
2024-02-15T15:56:56.867Z,100823.72
2024-02-15T15:59:23.609Z,100825.56
2024-02-15T16:01:52.102Z,100819.44
2024-02-15T16:04:18.816Z,100816.63
2024-02-15T16:06:45.564Z,100825.66
2024-02-15T16:09:12.344Z,100814.38
2024-02-15T16:11:39.207Z,100824.00
2024-02-15T16:14:10.944Z,100818.75
2024-02-15T16:16:37.546Z,100817.16
2024-02-15T16:19:04.372Z,100826.06
2024-02-15T16:21:31.172Z,100818.19
2024-02-15T16:23:57.958Z,100819.03
2024-02-15T16:26:24.691Z,100823.31
2024-02-15T16:28:51.664Z,100819.66
2024-02-15T16:31:18.293Z,100823.97
2024-02-15T16:33:45.121Z,100818.63
2024-02-15T16:36:11.918Z,100822.13
2024-02-15T16:38:38.538Z,100819.66
2024-02-15T16:41:05.133Z,100822.34
2024-02-15T16:43:31.967Z,100830.97
2024-02-15T16:45:59.152Z,100827.34
2024-02-15T16:48:25.977Z,100832.81
2024-02-15T16:50:53.262Z,100839.13
2024-02-15T16:53:19.923Z,100841.72
2024-02-15T16:55:46.599Z,100843.53
2024-02-15T16:58:13.233Z,100843.59
2024-02-15T17:00:40.334Z,100840.19
2024-02-15T17:03:07.484Z,100844.38
2024-02-15T17:05:34.385Z,100844.94
2024-02-15T17:08:00.980Z,100856.13
2024-02-15T17:10:27.666Z,100857.03
2024-02-15T17:12:54.805Z,100855.88
2024-02-15T17:15:22.207Z,100859.38
2024-02-15T17:17:49.145Z,100863.72
2024-02-15T17:20:16.281Z,100859.38
2024-02-15T17:22:43.462Z,100862.94
2024-02-15T17:25:10.803Z,100864.75
2024-02-15T17:27:37.562Z,100869.03
2024-02-15T17:30:04.930Z,100871.19
2024-02-15T17:32:31.717Z,100872.91
2024-02-15T17:34:58.400Z,100872.53
2024-02-15T17:37:25.037Z,100876.09
2024-02-15T17:39:51.693Z,100884.00
2024-02-15T17:42:18.349Z,100880.53
2024-02-15T17:44:45.044Z,100878.97
2024-02-15T17:47:11.640Z,100887.56
2024-02-15T17:49:38.281Z,100884.13
2024-02-15T17:52:05.190Z,100879.66
2024-02-15T17:54:31.767Z,100888.53
2024-02-15T17:56:58.476Z,100878.00
2024-02-15T17:59:25.147Z,100889.31
2024-02-15T18:01:51.796Z,100886.84
2024-02-15T18:04:18.459Z,100884.28
2024-02-15T18:06:45.201Z,100880.75
2024-02-15T18:09:12.052Z,100885.09
2024-02-15T18:11:38.854Z,100877.97
2024-02-15T18:14:05.555Z,100881.50
2024-02-15T18:16:32.264Z,100867.69
2024-02-15T18:18:59.062Z,100868.50
2024-02-15T18:21:25.927Z,100871.91
2024-02-15T18:23:52.612Z,100868.47
2024-02-15T18:26:19.402Z,100866.75
2024-02-15T18:28:46.018Z,100868.44
2024-02-15T18:31:13.565Z,100862.25
2024-02-15T18:33:40.931Z,100870.03
2024-02-15T18:36:08.659Z,100871.88
2024-02-15T18:38:35.456Z,100858.78
2024-02-15T18:41:02.134Z,100866.69
2024-02-15T18:43:28.928Z,100858.84
2024-02-15T18:45:55.577Z,100863.91
2024-02-15T18:48:22.517Z,100864.94
2024-02-15T18:50:49.447Z,100864.03
2024-02-15T18:53:16.224Z,100859.59
2024-02-15T18:55:45.068Z,100860.50
2024-02-15T18:58:11.702Z,100864.94
2024-02-15T19:00:43.168Z,100875.22
2024-02-15T19:03:16.769Z,100867.47
2024-02-15T19:05:43.560Z,100872.50
2024-02-15T19:08:10.390Z,100878.03
2024-02-15T19:10:37.003Z,100872.81
2024-02-15T19:13:03.941Z,100863.16
2024-02-15T19:15:30.618Z,100872.25
2024-02-15T19:17:57.476Z,100872.28
2024-02-15T19:20:24.174Z,100873.00
2024-02-15T19:22:50.818Z,100876.47
2024-02-15T19:25:18.027Z,100871.19
2024-02-15T19:27:45.577Z,100872.25
2024-02-15T19:30:13.221Z,100871.38
2024-02-15T19:32:41.191Z,100862.59
2024-02-15T19:35:08.342Z,100870.47
2024-02-15T19:37:35.178Z,100869.53
2024-02-15T19:40:02.367Z,100869.47
2024-02-15T19:42:29.137Z,100876.53
2024-02-15T19:44:55.896Z,100866.94
2024-02-15T19:47:22.510Z,100876.53
2024-02-15T19:49:49.278Z,100870.50
2024-02-15T19:52:16.034Z,100874.75
2024-02-15T19:54:42.659Z,100870.53
2024-02-15T19:57:09.351Z,100881.09
2024-02-15T19:59:36.011Z,100885.44
2024-02-15T20:02:03.701Z,100884.59
2024-02-15T20:04:30.419Z,100879.31
2024-02-15T20:06:57.219Z,100887.19
2024-02-15T20:09:28.459Z,100887.19
2024-02-15T20:11:59.171Z,100882.88
2024-02-15T20:14:25.804Z,100892.44
2024-02-15T20:16:52.562Z,100875.94
2024-02-15T20:19:19.167Z,100889.94
2024-02-15T20:21:45.838Z,100882.81
2024-02-15T20:24:12.515Z,100888.13
2024-02-15T20:26:39.341Z,100881.94
2024-02-15T20:29:06.004Z,100886.34
2024-02-15T20:31:32.679Z,100888.97
2024-02-15T20:33:59.876Z,100887.06
2024-02-15T20:36:26.674Z,100885.13
2024-02-15T20:38:53.375Z,100889.56
2024-02-15T20:41:19.989Z,100885.22
2024-02-15T20:43:46.702Z,100889.66
2024-02-15T20:46:13.396Z,100892.31
2024-02-15T20:48:40.083Z,100902.00
2024-02-15T20:51:06.848Z,100896.03
2024-02-15T20:53:33.503Z,100895.09
2024-02-15T20:56:00.392Z,100899.47
2024-02-15T20:58:27.133Z,100887.19
2024-02-15T21:00:53.829Z,100899.44
2024-02-15T21:03:20.763Z,100898.50
2024-02-15T21:05:47.526Z,100886.22
2024-02-15T21:08:14.273Z,100889.72
2024-02-15T21:10:40.938Z,100886.25
2024-02-15T21:13:07.529Z,100892.28
2024-02-15T21:15:34.286Z,100898.56
2024-02-15T21:18:01.110Z,100889.78
2024-02-15T21:20:27.903Z,100894.16
2024-02-15T21:22:54.659Z,100888.13
2024-02-15T21:25:21.936Z,100894.22
2024-02-15T21:27:48.615Z,100888.16
2024-02-15T21:30:15.439Z,100888.13
2024-02-15T21:32:42.104Z,100889.00
2024-02-15T21:35:08.923Z,100892.56
2024-02-15T21:37:35.544Z,100888.19
2024-02-15T21:40:02.964Z,100881.94
2024-02-15T21:42:29.647Z,100885.50
2024-02-15T21:44:56.364Z,100888.97
2024-02-15T21:47:23.056Z,100881.97
2024-02-15T21:49:49.728Z,100886.38
2024-02-15T21:52:16.321Z,100882.91
2024-02-15T21:54:43.020Z,100888.06
2024-02-15T21:57:09.757Z,100885.44
2024-02-15T21:59:37.327Z,100889.81
2024-02-15T22:02:04.466Z,100891.59
2024-02-15T22:04:31.134Z,100881.97
2024-02-15T22:06:57.880Z,100890.78
2024-02-15T22:09:24.637Z,100892.56
2024-02-15T22:11:51.306Z,100897.84
2024-02-15T22:14:17.927Z,100887.31
2024-02-15T22:16:44.645Z,100882.09
2024-02-15T22:19:12.312Z,100887.34
2024-02-15T22:21:39.014Z,100873.34
2024-02-15T22:24:05.946Z,100884.75
2024-02-15T22:26:32.506Z,100876.00
2024-02-15T22:28:59.124Z,100884.69
2024-02-15T22:31:25.756Z,100882.09
2024-02-15T22:33:52.575Z,100881.22
2024-02-15T22:36:22.775Z,100892.59
2024-02-15T22:38:49.469Z,100893.47
2024-02-15T22:41:16.054Z,100896.03
2024-02-15T22:43:42.731Z,100894.31
2024-02-15T22:46:09.373Z,100897.84
2024-02-15T22:48:36.053Z,100896.94
2024-02-15T22:51:02.726Z,100896.97
2024-02-15T22:53:29.567Z,100895.22
2024-02-15T22:55:56.197Z,100896.97
2024-02-15T22:58:25.292Z,100891.75
2024-02-15T23:00:52.188Z,100892.56
2024-02-15T23:03:18.875Z,100898.69
2024-02-15T23:05:46.274Z,100893.47
2024-02-15T23:08:12.992Z,100887.41
2024-02-15T23:10:39.729Z,100883.88
2024-02-15T23:13:06.314Z,100880.38
2024-02-15T23:15:33.013Z,100876.88
2024-02-15T23:17:59.830Z,100880.41
2024-02-15T23:20:26.483Z,100879.50
2024-02-15T23:22:53.096Z,100877.69
2024-02-15T23:25:19.673Z,100873.34
2024-02-15T23:27:46.291Z,100876.03
2024-02-15T23:30:13.044Z,100881.22
2024-02-15T23:32:39.900Z,100882.00
2024-02-15T23:35:07.148Z,100873.34
2024-02-15T23:37:33.846Z,100886.47
2024-02-15T23:40:00.527Z,100878.59
2024-02-15T23:42:27.320Z,100875.97
2024-02-15T23:44:54.097Z,100884.69
2024-02-15T23:47:20.736Z,100876.00
2024-02-15T23:49:47.429Z,100878.53
2024-02-15T23:52:14.057Z,100872.34
2024-02-15T23:54:40.747Z,100876.72
2024-02-15T23:57:08.047Z,100874.97
2024-02-15T23:59:35.328Z,100877.66
